KLBB METAR and TAF | Updated Today

KLBB METAR

Lubbock Preston Smith International Airport

Observation time: 18 min. ago

KLBB 301853Z VRB03KT 10SM FEW150 FEW200 SCT250 19/M02 A3004 RMK AO2 SLP144 T01941022

Need help? Read our tutorial on how to read METARs or read the parsed version below.

Lubbock Preston Smith International Airport (KLBB) METAR

  • Weather conditions on Tue, 30 Nov 2021 18:53:00 +0000 (18 min. ago):
  • Present conditions: Dry
  • Clouds: A few at 4572 meters; a few at 6096 meters; scattered at 7620 meters
  • Visibility: 16093 meters
  • Wind: Variable at 3 knots
  • Temperature: 19 celsius
  • Dew point: -2 celsius
  • Pressure: 30.04 inHg
  • Remarks: AO2 SLP144 T01941022


Useful to know...

KLBB TAF

Lubbock Preston Smith International Airport

KLBB 301720Z 3018/0118 30009KT P6SM FEW250 FM302100 35011KT P6SM FEW250
Observation time: 1:51 hr. ago
Need help? Read our tutorial on how to read TAFs or read the parsed version below.

Parsed version of TAF for Lubbock Preston Smith International Airport (KLBB)

  • From 30 November at 18:00 UTC, to day 01 of the month at 18:00 UTC
  • Clouds: A few at 7620 meters
  • Wind: 300 degrees at 9
  • From day 30 of the month at 21:00 UTC
  • Clouds: A few at 7620 meters
  • Wind: 350 degrees at 11

Airports near KLBB

KPVW Weather
Region: Plainview

Hale County Airport

Not found in our database